»·PEaware :: DCM175 KLMT-KGEG

DCM175 :: KLMT-KGEG

FLIGHT INFORMATION

Flight Status: Arrived
Operator: DotCom
More flights by this operator :: More flights under this callsign
Pilot: Anonymous 15639 (15639)
Aircraft: BOEING 727-200
(B722)
More flights by this aircraft type
Origin: KLMT Klamath Falls Intl
United States
Destination: KGEG Spokane Intl
United States
More flights between these airports :: More routes between these airports
Route: LKV J3 GEG
File this flight plan on PilotEdge
Remarks:
Altitude:
(Current/Filed)
31,000ft
Speed:
(Current/Filed)
487kts
Departed: 09-Sep-18 04:06 PM
Arrived: 09-Sep-18 05:10 PM
Distance/Time
Traveled:
373nm/1:04
Distance/Time
To Go:
Arrived

Flight Plot

Page will automatically refresh every two minutes.

Flight plan parsing failed; only flown route is shown


Map Options




Map Legend


Flown Route
Filed Route
Departure Airport
Arrival Airport
Navaid (VOR, NDB)
Fix

Horizontal Profiles

Position Reports

Time Latitude Longitude Heading Altitude Ground
Speed
09-Sep-18 15:51 42.163601 -121.743367 0 4100ft 0kts
09-Sep-18 15:52 42.163601 -121.743367 359 4100ft 0kts
09-Sep-18 15:53 42.163601 -121.743367 359 4100ft 0kts
09-Sep-18 15:54 42.163601 -121.743367 359 4100ft 0kts
09-Sep-18 15:55 42.163601 -121.743367 359 4100ft 0kts
09-Sep-18 15:56 42.163601 -121.743367 359 4100ft 0kts
09-Sep-18 15:57 42.163601 -121.743367 359 4100ft 0kts
09-Sep-18 15:58 42.163601 -121.743367 359 4100ft 0kts
09-Sep-18 15:59 42.163601 -121.743367 359 4100ft 0kts
09-Sep-18 16:00 42.163601 -121.743367 359 4100ft 0kts
09-Sep-18 16:01 42.163601 -121.743367 359 4100ft 0kts
09-Sep-18 16:02 42.163601 -121.743367 359 4100ft 0kts
09-Sep-18 16:03 42.163601 -121.743367 359 4100ft 0kts
09-Sep-18 16:04 42.163601 -121.743367 359 4100ft 0kts
09-Sep-18 16:05 42.163623 -121.743365 359 4100ft 1kts
09-Sep-18 16:06 42.165348 -121.742014 3 4100ft 15kts
09-Sep-18 16:07 42.167889 -121.740692 42 4100ft 7kts
09-Sep-18 16:08 42.156961 -121.733792 158 4101ft 136kts
09-Sep-18 16:09 42.115393 -121.711769 144 5291ft 173kts
09-Sep-18 16:10 42.080598 -121.659922 130 6965ft 200kts
09-Sep-18 16:11 42.081176 -121.587362 54 8812ft 221kts
09-Sep-18 16:12 42.112675 -121.508341 58 10490ft 259kts
09-Sep-18 16:13 42.151863 -121.416926 62 11904ft 310kts
09-Sep-18 16:14 42.195210 -121.301913 62 12853ft 374kts
09-Sep-18 16:15 42.242024 -121.177731 62 15381ft 378kts
09-Sep-18 16:16 42.290689 -121.048936 62 17317ft 392kts
09-Sep-18 16:17 42.340838 -120.915716 61 19086ft 404kts
09-Sep-18 16:18 42.392205 -120.778643 61 20664ft 416kts
09-Sep-18 16:19 42.445027 -120.636667 61 22079ft 427kts
09-Sep-18 16:20 42.501482 -120.493719 44 23334ft 432kts
09-Sep-18 16:21 42.602790 -120.426051 1 24460ft 412kts
09-Sep-18 16:22 42.716953 -120.410641 0 25554ft 417kts
09-Sep-18 16:23 42.832007 -120.380804 7 26643ft 427kts
09-Sep-18 16:24 42.942018 -120.342154 10 27525ft 434kts
09-Sep-18 16:25 43.045201 -120.302776 9 28265ft 438kts
09-Sep-18 16:26 43.149259 -120.264065 9 28947ft 442kts
09-Sep-18 16:27 43.242662 -120.229319 9 29400ft 448kts
09-Sep-18 16:28 43.356413 -120.186742 10 30131ft 449kts
09-Sep-18 16:29 43.476338 -120.141618 10 30713ft 453kts
09-Sep-18 16:30 43.596835 -120.096122 10 31064ft 462kts
09-Sep-18 16:31 43.721952 -120.048679 10 31031ft 478kts
09-Sep-18 16:32 43.851034 -120.005380 7 31064ft 484kts
09-Sep-18 16:33 43.977750 -119.962180 9 31027ft 482kts
09-Sep-18 16:34 44.101986 -119.916149 10 31036ft 479kts
09-Sep-18 16:35 44.208425 -119.877016 9 31036ft 477kts
09-Sep-18 16:36 44.322442 -119.834580 10 31037ft 477kts
09-Sep-18 16:37 44.428400 -119.794818 10 31037ft 476kts
09-Sep-18 16:38 44.576524 -119.739779 9 31040ft 475kts
09-Sep-18 16:39 44.699657 -119.675746 20 31040ft 480kts
09-Sep-18 16:40 44.819640 -119.594708 22 31041ft 483kts
09-Sep-18 16:41 44.919619 -119.524561 21 31042ft 487kts
09-Sep-18 16:42 45.035375 -119.443919 21 31042ft 491kts
09-Sep-18 16:43 45.163706 -119.355003 21 30978ft 497kts
09-Sep-18 16:44 45.260775 -119.285266 22 30969ft 499kts
09-Sep-18 16:45 45.336437 -119.231594 22 30973ft 500kts
09-Sep-18 16:46 45.444751 -119.154888 22 30971ft 502kts
09-Sep-18 16:47 45.569230 -119.066541 22 30972ft 504kts
09-Sep-18 16:48 45.692258 -118.978727 22 30973ft 506kts
09-Sep-18 16:49 45.817632 -118.888801 22 30974ft 508kts
09-Sep-18 16:50 45.943069 -118.798228 22 30975ft 511kts
09-Sep-18 16:51 46.068114 -118.707500 22 30984ft 512kts
09-Sep-18 16:52 46.180385 -118.632544 13 30977ft 506kts
09-Sep-18 16:53 46.281014 -118.571692 20 30846ft 508kts
09-Sep-18 16:54 46.376603 -118.504976 21 29896ft 481kts
09-Sep-18 16:55 46.490788 -118.422678 21 28577ft 454kts
09-Sep-18 16:56 46.601473 -118.342143 22 26159ft 452kts
09-Sep-18 16:57 46.711062 -118.261047 22 24087ft 440kts
09-Sep-18 16:58 46.818148 -118.182621 22 22122ft 427kts
09-Sep-18 16:59 46.923431 -118.105339 22 19957ft 421kts
09-Sep-18 17:00 47.026338 -118.029471 23 17638ft 407kts
09-Sep-18 17:01 47.124432 -117.957009 23 14873ft 389kts
09-Sep-18 17:02 47.217328 -117.888289 24 12218ft 376kts
09-Sep-18 17:03 47.304153 -117.823307 24 11745ft 330kts
09-Sep-18 17:04 47.363790 -117.728471 53 10674ft 313kts
09-Sep-18 17:05 47.411672 -117.627573 53 9961ft 278kts
09-Sep-18 17:06 47.458280 -117.529950 53 8010ft 304kts
09-Sep-18 17:07 47.517492 -117.437500 41 6164ft 314kts
09-Sep-18 17:08 47.593996 -117.392970 16 5399ft 281kts
09-Sep-18 17:09 47.666308 -117.390363 326 4223ft 241kts
09-Sep-18 17:10 47.668567 -117.462442 248 3094ft 176kts
09-Sep-18 17:11 47.638840 -117.506736 224 2539ft 142kts
09-Sep-18 17:12 47.619940 -117.535219 224 2370ft 22kts
09-Sep-18 17:13 47.618141 -117.540127 269 2371ft 6kts
09-Sep-18 17:14 47.618142 -117.540266 269 2371ft 0kts
09-Sep-18 17:15 47.619555 -117.539878 46 2365ft 18kts
09-Sep-18 17:16 47.622499 -117.537925 306 2364ft 7kts
09-Sep-18 17:17 47.623285 -117.539236 0 2367ft 0kts
09-Sep-18 17:18 47.623285 -117.539236 0 2367ft 0kts
09-Sep-18 17:19 47.623285 -117.539236 0 2367ft 0kts

Navigation Log

Ident Type
Flight plan parsing failed, navigation log unavailable